Time;durP1;ratioP1;P1;durP2;ratioP2;P2;SDS_P1;SDS_P2;PMS_P1;PMS_P2;Temp;Humidity;BMP_temperature;BMP_pressure;BME280_temperature;BME280_humidity;BME280_pressure;Samples;Min_cycle;Max_cycle;Signal;HPM_P1;HPM_P2
2023/01/23 00:00:14;;;;;;;14.70;7.97;;;2.60;99.90;;;;;;5048577;28;20104;-64
2023/01/23 00:02:40;;;;;;;11.40;6.90;;;2.60;99.90;;;;;;5032133;28;20119;-64
2023/01/23 00:05:06;;;;;;;9.77;6.70;;;2.60;99.90;;;;;;5032933;28;20124;-64
2023/01/23 00:07:32;;;;;;;13.90;7.78;;;2.50;99.90;;;;;;5048387;28;20037;-64
2023/01/23 00:09:57;;;;;;;9.98;6.57;;;2.50;99.90;;;;;;5030966;28;20033;-64
2023/01/23 00:12:24;;;;;;;12.65;7.15;;;2.50;99.90;;;;;;5029040;28;20048;-65
2023/01/23 00:14:50;;;;;;;17.42;7.97;;;2.60;99.90;;;;;;5031483;28;20044;-64
2023/01/23 00:17:15;;;;;;;13.13;7.25;;;2.50;99.90;;;;;;5049387;28;20045;-64
2023/01/23 00:19:41;;;;;;;14.70;7.80;;;2.60;99.90;;;;;;5048386;28;20128;-64
2023/01/23 00:22:07;;;;;;;17.52;8.15;;;2.50;99.90;;;;;;5049118;28;20064;-64
2023/01/23 00:24:32;;;;;;;17.77;8.10;;;2.50;99.90;;;;;;5030309;28;20077;-64
2023/01/23 00:26:58;;;;;;;13.57;7.40;;;2.50;99.90;;;;;;5046423;28;20507;-64
2023/01/23 00:29:24;;;;;;;15.93;8.18;;;2.50;99.90;;;;;;5049668;28;20021;-65
2023/01/23 00:31:49;;;;;;;14.02;7.95;;;2.60;99.90;;;;;;5028488;28;20175;-64
2023/01/23 00:34:15;;;;;;;15.55;8.45;;;2.50;99.90;;;;;;5048920;28;20085;-64
2023/01/23 00:36:43;;;;;;;12.70;7.55;;;2.50;99.90;;;;;;5052962;28;20045;-64
2023/01/23 00:39:16;;;;;;;14.57;8.68;;;2.60;99.90;;;;;;5034183;28;20059;-64
2023/01/23 00:41:42;;;;;;;15.25;7.95;;;2.60;99.90;;;;;;5030576;28;20069;-65
2023/01/23 00:44:08;;;;;;;14.15;8.38;;;2.50;99.90;;;;;;5052981;28;20162;-64
2023/01/23 00:46:33;;;;;;;17.15;8.23;;;2.60;99.90;;;;;;5052904;28;20540;-64
2023/01/23 00:48:59;;;;;;;14.57;8.10;;;2.60;99.90;;;;;;5051097;28;20503;-65
2023/01/23 00:51:25;;;;;;;15.35;8.07;;;2.60;99.90;;;;;;5033624;28;20106;-64
2023/01/23 00:53:51;;;;;;;14.02;8.40;;;2.60;99.90;;;;;;5033880;28;20300;-64
2023/01/23 00:56:17;;;;;;;17.83;8.48;;;2.60;99.90;;;;;;5052271;28;20160;-64
2023/01/23 00:58:43;;;;;;;13.98;8.93;;;2.60;99.90;;;;;;5033774;28;20047;-64
2023/01/23 01:01:09;;;;;;;12.77;8.02;;;2.60;99.90;;;;;;5052450;28;20040;-64
2023/01/23 01:03:36;;;;;;;14.38;8.10;;;2.50;99.90;;;;;;5052604;28;20041;-65
2023/01/23 01:06:02;;;;;;;16.75;8.85;;;2.60;99.90;;;;;;5051973;28;20040;-64
2023/01/23 01:08:27;;;;;;;15.27;9.23;;;2.60;99.90;;;;;;5050694;28;20029;-64
2023/01/23 01:10:53;;;;;;;18.25;9.57;;;2.60;99.90;;;;;;5034774;28;20044;-64
2023/01/23 01:13:20;;;;;;;16.08;9.40;;;2.60;99.90;;;;;;5030755;28;20048;-64
2023/01/23 01:15:48;;;;;;;15.80;9.27;;;2.60;99.90;;;;;;5031990;28;20098;-64
2023/01/23 01:18:14;;;;;;;14.85;9.20;;;2.60;99.90;;;;;;5052712;28;20041;-64
2023/01/23 01:20:41;;;;;;;14.75;8.82;;;2.60;99.90;;;;;;5050762;28;20326;-64
2023/01/23 01:23:08;;;;;;;15.65;9.55;;;2.50;99.90;;;;;;5033891;28;20045;-64
2023/01/23 01:25:33;;;;;;;20.67;9.73;;;2.50;99.90;;;;;;5052265;28;20116;-65
2023/01/23 01:27:59;;;;;;;22.63;10.95;;;2.50;99.90;;;;;;5031669;28;20116;-64
2023/01/23 01:30:26;;;;;;;15.07;9.52;;;2.60;99.90;;;;;;5052372;28;20040;-64
2023/01/23 01:32:53;;;;;;;17.08;10.27;;;2.60;99.90;;;;;;5034375;28;20092;-64
2023/01/23 01:35:20;;;;;;;15.07;10.25;;;2.50;99.90;;;;;;5017201;28;20575;-63
2023/01/23 01:37:46;;;;;;;20.52;10.63;;;2.60;99.90;;;;;;5049337;28;20536;-65
2023/01/23 01:40:19;;;;;;;14.38;9.57;;;2.50;99.90;;;;;;5038420;28;20052;-64
2023/01/23 01:42:48;;;;;;;16.73;10.15;;;2.50;99.90;;;;;;5059282;28;20040;-64
2023/01/23 01:45:51;;;;;;;16.83;10.25;;;2.60;99.90;;;;;;5058723;28;20037;-64
2023/01/23 01:48:23;;;;;;;16.40;10.95;;;2.60;99.90;;;;;;5051088;28;20037;-65
2023/01/23 01:50:49;;;;;;;18.67;10.48;;;2.50;99.90;;;;;;5013598;28;20509;-64
2023/01/23 01:53:15;;;;;;;17.38;10.60;;;2.50;99.90;;;;;;5050989;28;20106;-64
2023/01/23 01:55:41;;;;;;;17.45;10.98;;;2.50;99.90;;;;;;5051622;28;20100;-64
2023/01/23 01:58:08;;;;;;;15.95;10.70;;;2.50;99.90;;;;;;5050998;28;20054;-65
2023/01/23 02:00:34;;;;;;;18.65;10.85;;;2.50;99.90;;;;;;5049366;28;20122;-64
2023/01/23 02:03:02;;;;;;;19.23;11.13;;;2.50;99.90;;;;;;5052439;28;20455;-64
2023/01/23 02:05:27;;;;;;;20.05;11.68;;;2.50;99.90;;;;;;5048143;28;20041;-65
2023/01/23 02:08:18;;;;;;;15.13;10.27;;;2.60;99.90;;;;;;5032567;28;20049;-64
2023/01/23 02:10:44;;;;;;;16.85;11.00;;;2.60;99.90;;;;;;5049041;28;20177;-64
2023/01/23 02:13:21;;;;;;;12.98;10.40;;;2.50;99.90;;;;;;5051025;28;20495;-63
2023/01/23 02:15:48;;;;;;;17.17;11.13;;;2.60;99.90;;;;;;5049879;28;20040;-64
2023/01/23 02:18:14;;;;;;;17.30;10.88;;;2.60;99.90;;;;;;5050686;28;20044;-64
2023/01/23 02:20:40;;;;;;;19.27;10.63;;;2.50;99.90;;;;;;5029749;28;20041;-64
2023/01/23 02:23:23;;;;;;;18.48;11.07;;;2.60;99.90;;;;;;5032313;28;20049;-64
2023/01/23 02:25:52;;;;;;;12.55;10.30;;;2.60;99.90;;;;;;5050124;28;20143;-63
2023/01/23 02:28:18;;;;;;;17.02;11.18;;;2.70;99.90;;;;;;5048764;28;20467;-65
2023/01/23 02:30:49;;;;;;;18.17;11.10;;;2.60;99.90;;;;;;5047865;28;20029;-63
2023/01/23 02:33:23;;;;;;;16.50;10.80;;;2.60;99.90;;;;;;5048459;28;20041;-63
2023/01/23 02:35:49;;;;;;;16.13;11.00;;;2.60;99.90;;;;;;5031257;28;20041;-65
2023/01/23 02:38:19;;;;;;;18.35;11.32;;;2.60;99.90;;;;;;5030399;28;20125;-64
2023/01/23 02:40:45;;;;;;;17.52;10.73;;;2.60;99.90;;;;;;5049905;28;20385;-65
2023/01/23 02:43:18;;;;;;;17.73;11.65;;;2.70;99.90;;;;;;5032309;28;20045;-64
2023/01/23 02:45:44;;;;;;;17.83;10.23;;;2.60;99.90;;;;;;5050536;28;20500;-63
2023/01/23 02:48:10;;;;;;;17.55;10.70;;;2.60;99.90;;;;;;5048915;28;20034;-64
2023/01/23 02:50:35;;;;;;;15.88;11.02;;;2.60;99.90;;;;;;5047685;28;20116;-66
2023/01/23 02:53:02;;;;;;;18.52;10.23;;;2.60;99.90;;;;;;5049179;28;20044;-64
2023/01/23 02:55:32;;;;;;;18.50;10.52;;;2.60;99.90;;;;;;5050194;28;20868;-65
2023/01/23 03:00:14;;;;;;;15.90;10.60;;;2.60;99.90;;;;;;5048369;28;20044;-63
2023/01/23 03:00:45;;;;;;;15.30;10.57;;;2.50;99.90;;;;;;5050157;28;20720;-64
2023/01/23 03:03:11;;;;;;;19.00;11.43;;;2.60;99.90;;;;;;5050145;28;20370;-64
2023/01/23 03:05:38;;;;;;;19.85;10.98;;;2.60;99.90;;;;;;5049064;28;20045;-64
2023/01/23 03:08:04;;;;;;;18.75;10.10;;;2.60;99.90;;;;;;5031566;28;20054;-64
2023/01/23 03:10:30;;;;;;;13.70;10.23;;;2.60;99.90;;;;;;5047253;28;20488;-64
2023/01/23 03:13:00;;;;;;;18.88;10.50;;;2.60;99.90;;;;;;5030481;28;20037;-65
2023/01/23 03:15:27;;;;;;;21.15;10.50;;;2.60;99.90;;;;;;5049966;28;20342;-66
2023/01/23 03:17:53;;;;;;;16.70;10.25;;;2.60;99.90;;;;;;5032394;28;20610;-63
2023/01/23 03:20:22;;;;;;;17.02;9.80;;;2.60;99.90;;;;;;5049343;28;20072;-64
2023/01/23 03:22:48;;;;;;;18.30;10.65;;;2.60;99.90;;;;;;5047665;28;20469;-63
2023/01/23 03:25:14;;;;;;;19.15;10.88;;;2.60;99.90;;;;;;5050005;28;20522;-63
2023/01/23 03:27:40;;;;;;;15.63;10.27;;;2.60;99.90;;;;;;5048922;28;20048;-64
2023/01/23 03:30:14;;;;;;;16.13;9.98;;;2.60;99.90;;;;;;5050501;28;20472;-63
2023/01/23 03:32:41;;;;;;;15.10;9.60;;;2.60;99.90;;;;;;5032257;28;20492;-64
2023/01/23 03:35:15;;;;;;;18.20;10.77;;;2.60;99.90;;;;;;5049591;28;20108;-64
2023/01/23 03:37:42;;;;;;;15.95;9.48;;;2.60;99.90;;;;;;5048442;28;20040;-63
2023/01/23 03:43:10;;;;;;;13.90;9.50;;;2.60;99.90;;;;;;5049667;28;20144;-64
2023/01/23 03:45:36;;;;;;;15.55;10.50;;;2.60;99.90;;;;;;5047312;28;20115;-64
2023/01/23 03:48:02;;;;;;;11.88;9.73;;;2.60;99.90;;;;;;5048592;28;20037;-63
2023/01/23 03:50:27;;;;;;;14.57;9.98;;;2.60;99.90;;;;;;5048228;28;20029;-63
2023/01/23 03:52:53;;;;;;;15.73;9.05;;;2.60;99.90;;;;;;5049289;28;20044;-64
2023/01/23 03:55:18;;;;;;;16.20;10.23;;;2.60;99.90;;;;;;5049910;28;20132;-64
2023/01/23 03:57:44;;;;;;;17.02;10.25;;;2.60;99.90;;;;;;5049612;28;20571;-65
2023/01/23 04:00:12;;;;;;;15.63;10.13;;;2.60;99.90;;;;;;5049631;28;20041;-65
2023/01/23 04:02:38;;;;;;;14.77;9.80;;;2.60;99.90;;;;;;5047855;28;20454;-64
2023/01/23 04:05:04;;;;;;;17.10;10.98;;;2.60;99.90;;;;;;5031107;28;20265;-64
2023/01/23 04:07:30;;;;;;;15.18;11.02;;;2.60;99.90;;;;;;5047997;28;20037;-63
2023/01/23 04:09:55;;;;;;;18.17;10.68;;;2.60;99.90;;;;;;5050362;28;20044;-64
2023/01/23 04:12:21;;;;;;;15.35;10.52;;;2.60;99.90;;;;;;5053476;28;20473;-65
2023/01/23 04:14:47;;;;;;;18.17;10.40;;;2.60;99.90;;;;;;5035304;28;20116;-63
2023/01/23 04:17:12;;;;;;;19.13;10.35;;;2.60;99.90;;;;;;5053716;28;20111;-63
2023/01/23 04:19:38;;;;;;;16.25;10.38;;;2.60;99.90;;;;;;5052333;28;20457;-63
2023/01/23 04:22:04;;;;;;;17.40;10.85;;;2.70;99.90;;;;;;5053055;28;20053;-64
2023/01/23 04:24:30;;;;;;;19.13;11.20;;;2.60;99.90;;;;;;5052427;28;20446;-65
2023/01/23 04:26:55;;;;;;;18.05;10.70;;;2.60;99.90;;;;;;5052976;28;20161;-64
2023/01/23 04:29:21;;;;;;;14.45;11.00;;;2.60;99.90;;;;;;5035318;28;20190;-63
2023/01/23 04:31:47;;;;;;;18.23;10.65;;;2.60;99.90;;;;;;5053293;28;20037;-63
2023/01/23 04:34:13;;;;;;;13.55;10.07;;;2.60;99.90;;;;;;5052362;28;20041;-65
2023/01/23 04:36:38;;;;;;;15.63;10.38;;;2.60;99.90;;;;;;5051895;28;20185;-64
2023/01/23 04:39:04;;;;;;;16.38;10.90;;;2.60;99.90;;;;;;5041715;28;20043;-64
2023/01/23 04:41:31;;;;;;;18.73;11.25;;;2.60;99.90;;;;;;5024084;28;20653;-65
2023/01/23 04:44:18;;;;;;;22.80;11.13;;;2.60;99.90;;;;;;5031921;28;20041;-64
2023/01/23 04:46:42;;;;;;;16.25;10.88;;;2.60;99.90;;;;;;5033062;28;20044;-64
2023/01/23 04:49:08;;;;;;;14.63;11.23;;;2.60;99.90;;;;;;5051513;28;20036;-64
2023/01/23 04:51:35;;;;;;;17.98;11.40;;;2.60;99.90;;;;;;5049085;28;20487;-65
2023/01/23 04:54:01;;;;;;;18.33;11.60;;;2.60;99.90;;;;;;5016995;28;20049;-64
2023/01/23 04:56:26;;;;;;;17.60;11.18;;;2.60;99.90;;;;;;5052115;28;20037;-65
2023/01/23 04:58:52;;;;;;;16.77;10.98;;;2.60;99.90;;;;;;5034325;28;20128;-65
2023/01/23 05:01:22;;;;;;;17.48;11.48;;;2.60;99.90;;;;;;5013902;28;20041;-64
2023/01/23 05:03:49;;;;;;;20.08;12.10;;;2.60;99.90;;;;;;5034040;28;20115;-64
2023/01/23 05:06:14;;;;;;;15.43;11.10;;;2.60;99.90;;;;;;5033721;28;20444;-64
2023/01/23 05:08:40;;;;;;;16.13;11.00;;;2.60;99.90;;;;;;5027255;28;20045;-63
2023/01/23 05:11:06;;;;;;;16.35;11.65;;;2.60;99.90;;;;;;5031223;28;20393;-64
2023/01/23 05:13:31;;;;;;;19.83;12.10;;;2.60;99.90;;;;;;5052568;28;20040;-63
2023/01/23 05:15:57;;;;;;;18.40;12.32;;;2.60;99.90;;;;;;5052274;28;20037;-64
2023/01/23 05:18:23;;;;;;;20.10;12.25;;;2.60;99.90;;;;;;5051302;28;20894;-64
2023/01/23 05:20:48;;;;;;;17.27;12.13;;;2.60;99.90;;;;;;5048655;28;20037;-64
2023/01/23 05:23:14;;;;;;;17.77;11.95;;;2.60;99.90;;;;;;5050171;28;20476;-64
2023/01/23 05:25:40;;;;;;;18.73;12.55;;;2.60;99.90;;;;;;5050228;28;20048;-64
2023/01/23 05:28:06;;;;;;;17.27;12.13;;;2.60;99.90;;;;;;5033482;28;20041;-64
2023/01/23 05:30:31;;;;;;;19.88;11.52;;;2.50;99.90;;;;;;5031434;28;20069;-63
2023/01/23 05:32:57;;;;;;;16.13;11.68;;;2.60;99.90;;;;;;5050291;28;20047;-65
2023/01/23 05:35:23;;;;;;;17.27;12.27;;;2.50;99.90;;;;;;5049770;28;20462;-63
2023/01/23 05:37:52;;;;;;;21.10;13.13;;;2.60;99.90;;;;;;5050215;28;20037;-63
2023/01/23 05:40:19;;;;;;;18.60;12.43;;;2.50;99.90;;;;;;5049564;28;20477;-65
2023/01/23 05:42:46;;;;;;;19.58;12.52;;;2.50;99.90;;;;;;5014833;28;20077;-65
2023/01/23 05:45:12;;;;;;;20.90;12.25;;;2.50;99.90;;;;;;5033069;28;20077;-65
2023/01/23 05:47:38;;;;;;;19.02;12.50;;;2.50;99.90;;;;;;5029665;28;20041;-63
2023/01/23 05:50:06;;;;;;;18.33;12.60;;;2.50;99.90;;;;;;5046628;28;20036;-65
2023/01/23 05:52:33;;;;;;;20.73;12.95;;;2.50;99.90;;;;;;5050264;28;20389;-64
2023/01/23 05:54:59;;;;;;;18.25;12.80;;;2.50;99.90;;;;;;5030330;28;20385;-64
2023/01/23 05:57:25;;;;;;;20.90;13.20;;;2.50;99.90;;;;;;5033417;28;20124;-64
2023/01/23 05:59:50;;;;;;;20.50;12.20;;;2.50;99.90;;;;;;5032963;28;20069;-65
2023/01/23 06:02:16;;;;;;;19.42;11.93;;;2.50;99.90;;;;;;5050052;28;20546;-64
2023/01/23 06:04:42;;;;;;;19.90;13.02;;;2.50;99.90;;;;;;5046757;28;20033;-64
2023/01/23 06:07:15;;;;;;;18.17;12.85;;;2.50;99.90;;;;;;5048731;28;20049;-64
2023/01/23 06:09:41;;;;;;;20.65;11.77;;;2.60;99.90;;;;;;5049985;28;20410;-63
2023/01/23 06:12:08;;;;;;;18.08;11.82;;;2.50;99.90;;;;;;5031407;28;20114;-64
2023/01/23 06:14:34;;;;;;;15.43;11.70;;;2.50;99.90;;;;;;5048610;28;20595;-64
2023/01/23 06:17:00;;;;;;;18.63;12.45;;;2.50;99.90;;;;;;5032787;28;20051;-64
2023/01/23 06:19:25;;;;;;;15.35;12.15;;;2.50;99.90;;;;;;5045942;28;20366;-64
2023/01/23 06:21:51;;;;;;;20.48;12.02;;;2.50;99.90;;;;;;5028153;28;20129;-63
2023/01/23 06:24:17;;;;;;;19.77;11.50;;;2.50;99.90;;;;;;5029385;28;20103;-64
2023/01/23 06:26:42;;;;;;;18.25;11.73;;;2.50;99.90;;;;;;5030730;28;20044;-64
2023/01/23 06:29:08;;;;;;;15.93;11.50;;;2.50;99.90;;;;;;5028522;28;20051;-65
2023/01/23 06:31:34;;;;;;;14.00;11.63;;;2.60;99.90;;;;;;5029947;28;20052;-64
2023/01/23 06:34:00;;;;;;;21.58;12.23;;;2.50;99.90;;;;;;5025040;28;20037;-65
2023/01/23 06:36:26;;;;;;;21.27;12.38;;;2.50;99.90;;;;;;5027532;28;20034;-64
2023/01/23 06:38:52;;;;;;;19.77;12.98;;;2.50;99.90;;;;;;5028393;28;20420;-63
2023/01/23 06:41:18;;;;;;;17.45;12.27;;;2.50;99.90;;;;;;5027691;28;20049;-64
2023/01/23 06:43:43;;;;;;;18.52;12.82;;;2.50;99.90;;;;;;5024259;28;20030;-64
2023/01/23 06:46:10;;;;;;;17.83;11.63;;;2.50;99.90;;;;;;5026526;28;20037;-65
2023/01/23 06:48:36;;;;;;;15.10;11.48;;;2.50;99.90;;;;;;5027793;28;20061;-65
2023/01/23 06:51:04;;;;;;;15.27;11.55;;;2.50;99.90;;;;;;5029549;28;20378;-64
2023/01/23 06:53:30;;;;;;;18.38;11.57;;;2.50;99.90;;;;;;5024847;28;20044;-65
2023/01/23 06:56:01;;;;;;;17.08;11.68;;;2.50;99.90;;;;;;5028256;28;20033;-64
2023/01/23 06:58:27;;;;;;;15.95;11.75;;;2.50;99.90;;;;;;5027100;28;20053;-65
2023/01/23 07:00:54;;;;;;;17.25;11.82;;;2.50;99.90;;;;;;5025774;28;20044;-64
2023/01/23 07:03:20;;;;;;;14.32;11.43;;;2.50;99.90;;;;;;5025895;28;20096;-64
2023/01/23 07:05:45;;;;;;;15.77;12.18;;;2.50;99.90;;;;;;5027644;28;20042;-64
2023/01/23 07:08:12;;;;;;;18.73;12.02;;;2.50;99.90;;;;;;5027907;28;20046;-64
2023/01/23 07:10:38;;;;;;;18.55;13.18;;;2.50;99.90;;;;;;5027319;28;20123;-64
2023/01/23 07:13:06;;;;;;;18.92;13.13;;;2.50;99.90;;;;;;5025845;28;20149;-65
2023/01/23 07:15:32;;;;;;;19.60;12.82;;;2.50;99.90;;;;;;5026004;28;20038;-63
2023/01/23 07:17:58;;;;;;;22.95;13.98;;;2.50;99.90;;;;;;5028507;28;20037;-64
2023/01/23 07:20:27;;;;;;;21.77;13.50;;;2.60;99.90;;;;;;5029676;28;20416;-64
2023/01/23 07:22:53;;;;;;;18.98;13.15;;;2.50;99.90;;;;;;5044171;28;20174;-64
2023/01/23 07:25:20;;;;;;;17.85;12.85;;;2.50;99.90;;;;;;5050173;28;20478;-64
2023/01/23 07:27:46;;;;;;;18.73;12.65;;;2.60;99.90;;;;;;5050047;28;20140;-65
2023/01/23 07:30:12;;;;;;;16.52;12.45;;;2.50;99.90;;;;;;5049809;28;20120;-63
2023/01/23 07:32:37;;;;;;;16.98;11.98;;;2.50;99.90;;;;;;5030757;28;20509;-64
2023/01/23 07:35:04;;;;;;;15.57;11.57;;;2.50;99.90;;;;;;5025037;28;20417;-64
2023/01/23 07:37:29;;;;;;;16.35;12.05;;;2.50;99.90;;;;;;5048173;28;20045;-64
2023/01/23 07:39:55;;;;;;;18.27;12.32;;;2.50;99.90;;;;;;5031597;28;20372;-64
2023/01/23 07:42:21;;;;;;;19.85;12.38;;;2.50;99.90;;;;;;5027550;28;20128;-64
2023/01/23 07:44:47;;;;;;;21.05;12.60;;;2.50;99.90;;;;;;5029277;28;20048;-64
2023/01/23 07:47:12;;;;;;;18.73;12.45;;;2.50;99.90;;;;;;5049556;28;20155;-64
2023/01/23 07:49:38;;;;;;;19.52;12.40;;;2.50;99.90;;;;;;5012336;28;20091;-64
2023/01/23 07:52:04;;;;;;;20.48;13.27;;;2.50;99.90;;;;;;5049997;28;20115;-64
2023/01/23 07:54:30;;;;;;;15.60;11.88;;;2.50;99.90;;;;;;5031102;28;20049;-64
2023/01/23 07:56:55;;;;;;;17.83;13.68;;;2.50;99.90;;;;;;5031555;28;20037;-64
2023/01/23 07:59:21;;;;;;;18.20;12.98;;;2.50;99.90;;;;;;5049269;28;20068;-64
2023/01/23 08:01:48;;;;;;;18.15;13.00;;;2.50;99.90;;;;;;5030110;28;20511;-64
2023/01/23 08:04:14;;;;;;;18.02;13.23;;;2.50;99.90;;;;;;5049393;28;20764;-64
2023/01/23 08:06:39;;;;;;;16.92;12.38;;;2.50;99.90;;;;;;5049136;28;20116;-64
2023/01/23 08:09:05;;;;;;;15.50;11.73;;;2.50;99.90;;;;;;5049348;28;20393;-64
2023/01/23 08:11:31;;;;;;;17.40;12.15;;;2.60;99.90;;;;;;5049264;28;20514;-64
2023/01/23 08:13:57;;;;;;;18.48;12.10;;;2.50;99.90;;;;;;5048964;28;20041;-65
2023/01/23 08:16:22;;;;;;;17.50;12.50;;;2.50;99.90;;;;;;5048928;28;20123;-64
2023/01/23 08:18:48;;;;;;;18.75;13.02;;;2.60;99.90;;;;;;5049225;28;20045;-64
2023/01/23 08:21:14;;;;;;;20.08;12.68;;;2.50;99.90;;;;;;5030685;28;20041;-64
2023/01/23 08:23:40;;;;;;;18.73;13.27;;;2.60;99.90;;;;;;5048579;28;20146;-64
2023/01/23 08:26:07;;;;;;;19.45;12.20;;;2.60;99.90;;;;;;5031513;28;20103;-64
2023/01/23 08:28:34;;;;;;;17.00;11.82;;;2.60;99.90;;;;;;5014085;28;20119;-64
2023/01/23 08:31:01;;;;;;;17.25;12.20;;;2.70;99.90;;;;;;5048672;28;20048;-64
2023/01/23 08:33:27;;;;;;;12.88;11.48;;;2.60;99.90;;;;;;5049118;28;20037;-65
2023/01/23 08:35:55;;;;;;;17.67;11.98;;;2.70;99.90;;;;;;5049091;28;20436;-63
2023/01/23 08:38:22;;;;;;;15.80;11.30;;;2.70;99.90;;;;;;5045759;28;20481;-64
2023/01/23 08:40:49;;;;;;;19.02;11.75;;;2.70;99.90;;;;;;5049374;28;20048;-64
2023/01/23 08:43:16;;;;;;;13.95;11.02;;;2.70;99.90;;;;;;5047653;28;20040;-64
2023/01/23 08:45:48;;;;;;;14.55;11.57;;;2.70;99.90;;;;;;5049241;28;20124;-63
2023/01/23 08:48:13;;;;;;;15.10;10.68;;;2.70;99.90;;;;;;5047184;28;20124;-64
2023/01/23 08:50:39;;;;;;;17.73;12.07;;;2.80;99.90;;;;;;5030881;28;20127;-64
2023/01/23 08:53:05;;;;;;;15.68;12.55;;;2.80;99.90;;;;;;5030179;28;20518;-64
2023/01/23 08:55:31;;;;;;;15.90;11.40;;;2.80;99.90;;;;;;5031331;28;20535;-64
2023/01/23 08:57:58;;;;;;;16.40;10.95;;;2.80;99.90;;;;;;5047167;28;20045;-64
2023/01/23 09:00:24;;;;;;;17.23;11.38;;;2.80;99.90;;;;;;5052617;28;20527;-64
2023/01/23 09:02:50;;;;;;;17.52;10.38;;;2.90;99.90;;;;;;5049056;28;20119;-64
2023/01/23 09:05:16;;;;;;;13.32;10.23;;;2.80;99.90;;;;;;5052163;28;20037;-63
2023/01/23 09:07:42;;;;;;;15.18;10.80;;;2.90;99.90;;;;;;5033299;28;20613;-63
2023/01/23 09:10:09;;;;;;;14.38;10.52;;;2.90;99.90;;;;;;5051531;28;20060;-63
2023/01/23 09:12:34;;;;;;;14.40;9.48;;;3.00;99.90;;;;;;5051623;28;20504;-64
2023/01/23 09:15:00;;;;;;;17.73;10.27;;;3.00;99.90;;;;;;5052966;28;20098;-63
2023/01/23 09:17:26;;;;;;;11.48;8.80;;;3.00;99.90;;;;;;5052368;28;20122;-63
2023/01/23 09:19:52;;;;;;;13.00;8.93;;;3.00;99.90;;;;;;5052479;28;20053;-63
2023/01/23 09:22:18;;;;;;;15.77;10.10;;;3.00;99.90;;;;;;5033958;28;20057;-64
2023/01/23 09:24:44;;;;;;;11.52;8.65;;;3.00;99.90;;;;;;5051290;28;20049;-64
2023/01/23 09:27:10;;;;;;;11.55;8.68;;;3.10;99.90;;;;;;5052862;28;20032;-64
2023/01/23 09:29:36;;;;;;;9.32;8.35;;;3.10;99.90;;;;;;5051145;28;20049;-64
2023/01/23 09:32:02;;;;;;;12.10;8.02;;;3.10;99.90;;;;;;5052820;28;20040;-63
2023/01/23 09:34:29;;;;;;;11.35;8.35;;;3.10;99.90;;;;;;5016747;28;20408;-64
2023/01/23 09:36:55;;;;;;;9.18;7.72;;;3.20;99.90;;;;;;5052332;28;20743;-63
2023/01/23 09:39:20;;;;;;;9.63;7.60;;;3.20;99.90;;;;;;5014140;28;20044;-64
2023/01/23 09:41:47;;;;;;;10.50;8.30;;;3.20;99.90;;;;;;5051553;28;20784;-64
2023/01/23 09:44:41;;;;;;;9.57;7.68;;;3.20;99.90;;;;;;5051783;28;20025;-64
2023/01/23 09:47:15;;;;;;;10.70;7.75;;;3.20;99.90;;;;;;5050054;28;20025;-63
2023/01/23 09:49:51;;;;;;;11.23;7.97;;;3.30;99.90;;;;;;5031081;28;20075;-64
2023/01/23 09:52:42;;;;;;;10.68;7.95;;;3.30;99.90;;;;;;5052024;28;20120;-64
2023/01/23 09:55:14;;;;;;;10.55;7.95;;;3.20;99.90;;;;;;5049235;28;20074;-64
2023/01/23 09:57:51;;;;;;;10.75;7.90;;;3.30;99.90;;;;;;5050107;28;20345;-64
2023/01/23 10:00:29;;;;;;;9.55;7.20;;;3.40;99.90;;;;;;5050197;28;20234;-64
2023/01/23 10:02:56;;;;;;;10.25;7.72;;;3.40;99.90;;;;;;5050837;28;20212;-63
2023/01/23 10:05:41;;;;;;;14.80;8.18;;;3.40;99.90;;;;;;5050254;28;20043;-64
2023/01/23 10:08:19;;;;;;;11.52;7.85;;;3.40;99.90;;;;;;5049149;28;20033;-63
2023/01/23 10:11:10;;;;;;;11.80;7.75;;;3.50;99.90;;;;;;5050566;28;20044;-64
2023/01/23 10:13:56;;;;;;;9.57;7.80;;;3.50;99.90;;;;;;5050008;28;20116;-64
2023/01/23 10:16:45;;;;;;;9.60;7.22;;;3.50;99.90;;;;;;5050867;28;20453;-64
2023/01/23 10:19:29;;;;;;;8.93;7.40;;;3.50;99.90;;;;;;5050023;28;20108;-65
2023/01/23 10:22:35;;;;;;;8.77;6.60;;;3.50;99.90;;;;;;5032511;28;20041;-64
2023/01/23 10:25:22;;;;;;;9.13;6.57;;;3.50;99.90;;;;;;5032478;28;20064;-63
2023/01/23 10:27:50;;;;;;;7.60;6.60;;;3.50;99.90;;;;;;5032512;28;20390;-64
2023/01/23 10:30:27;;;;;;;8.85;6.43;;;3.50;99.90;;;;;;5031079;28;20033;-63
2023/01/23 10:33:13;;;;;;;9.40;6.80;;;3.60;99.90;;;;;;5031540;28;20045;-64
2023/01/23 10:35:52;;;;;;;8.75;6.88;;;3.60;99.90;;;;;;5049749;28;20045;-63
2023/01/23 10:38:36;;;;;;;11.52;7.22;;;3.60;99.90;;;;;;5047386;28;20040;-64
2023/01/23 10:41:16;;;;;;;13.55;8.90;;;3.60;99.90;;;;;;5050598;28;20080;-65
2023/01/23 10:43:46;;;;;;;11.98;7.28;;;3.60;99.90;;;;;;5050226;28;20154;-63
2023/01/23 10:46:20;;;;;;;7.45;6.28;;;3.70;99.90;;;;;;5032468;28;20044;-63
2023/01/23 10:48:51;;;;;;;11.80;7.05;;;3.70;99.90;;;;;;5031101;28;20037;-63
2023/01/23 10:51:47;;;;;;;11.20;7.38;;;3.70;99.90;;;;;;5049964;28;20025;-65
2023/01/23 10:54:17;;;;;;;9.88;6.65;;;3.70;99.90;;;;;;5031313;28;20177;-63
2023/01/23 10:57:02;;;;;;;9.15;6.47;;;3.70;99.90;;;;;;5050841;28;20465;-64
2023/01/23 10:59:35;;;;;;;8.90;6.15;;;3.70;99.90;;;;;;5047862;28;20400;-65
2023/01/23 11:02:03;;;;;;;9.13;6.45;;;3.60;99.90;;;;;;5013576;28;20527;-63
2023/01/23 11:04:34;;;;;;;8.93;6.10;;;3.60;99.90;;;;;;5030763;28;20041;-64
2023/01/23 11:07:04;;;;;;;8.18;6.35;;;3.70;99.90;;;;;;5047985;28;20634;-64
2023/01/23 11:09:30;;;;;;;10.35;6.75;;;3.70;99.90;;;;;;5048873;28;20040;-64
2023/01/23 11:12:00;;;;;;;9.13;6.78;;;3.70;99.90;;;;;;5031741;28;20049;-64
2023/01/23 11:14:27;;;;;;;6.57;5.88;;;3.70;99.90;;;;;;5030951;28;20048;-63
2023/01/23 11:17:11;;;;;;;9.13;6.82;;;3.70;99.90;;;;;;5031299;28;20069;-64
2023/01/23 11:19:37;;;;;;;7.13;6.15;;;3.80;99.90;;;;;;5029529;28;20072;-64
2023/01/23 11:22:04;;;;;;;7.88;6.50;;;3.70;99.90;;;;;;5029414;28;20088;-64
2023/01/23 11:24:31;;;;;;;6.75;6.05;;;3.80;99.90;;;;;;5031131;28;20041;-63
2023/01/23 11:27:00;;;;;;;6.95;6.35;;;3.80;99.90;;;;;;5045658;28;20056;-64
2023/01/23 11:29:29;;;;;;;7.82;5.63;;;3.80;99.90;;;;;;5014950;28;20036;-64
2023/01/23 11:32:03;;;;;;;8.98;6.25;;;3.80;99.90;;;;;;5049537;28;20098;-63
2023/01/23 11:34:37;;;;;;;7.20;5.87;;;3.80;99.90;;;;;;5049046;28;20093;-64
2023/01/23 11:37:23;;;;;;;9.68;6.32;;;3.80;99.90;;;;;;5047359;28;20040;-63
2023/01/23 11:40:06;;;;;;;8.93;7.07;;;3.80;99.90;;;;;;5047186;28;20094;-64
2023/01/23 11:42:34;;;;;;;11.65;7.63;;;3.90;99.90;;;;;;5048153;28;20418;-64
2023/01/23 11:45:00;;;;;;;13.35;8.60;;;3.90;99.90;;;;;;5031617;28;20037;-63
2023/01/23 11:47:38;;;;;;;12.55;8.73;;;3.80;99.90;;;;;;5049559;28;20090;-63
2023/01/23 11:50:40;;;;;;;7.88;6.20;;;3.90;99.90;;;;;;5046866;28;20108;-63
2023/01/23 11:53:53;;;;;;;9.75;7.88;;;3.90;99.90;;;;;;5047766;28;20060;-64
2023/01/23 11:56:42;;;;;;;9.48;6.97;;;3.90;99.90;;;;;;5046895;28;20094;-63
2023/01/23 11:59:26;;;;;;;8.45;6.93;;;3.80;99.90;;;;;;5046212;28;20045;-64
2023/01/23 12:02:20;;;;;;;12.95;7.43;;;3.80;99.90;;;;;;5049711;28;20088;-63
2023/01/23 12:05:12;;;;;;;12.15;8.77;;;3.80;99.90;;;;;;5047340;28;20029;-64
2023/01/23 12:07:52;;;;;;;8.38;6.47;;;3.80;99.90;;;;;;5045437;28;20037;-63
2023/01/23 12:10:47;;;;;;;10.07;7.15;;;3.80;99.90;;;;;;5048698;28;20158;-65
2023/01/23 12:13:43;;;;;;;9.93;7.63;;;3.80;99.90;;;;;;5012903;28;20465;-63
2023/01/23 12:16:36;;;;;;;10.05;7.78;;;3.80;99.90;;;;;;5047107;28;20069;-63
2023/01/23 12:19:34;;;;;;;11.27;7.10;;;3.90;99.90;;;;;;5046235;28;20060;-64
2023/01/23 12:22:21;;;;;;;10.10;6.90;;;4.00;99.90;;;;;;5049415;28;20037;-65
2023/01/23 12:25:14;;;;;;;7.47;6.13;;;4.00;99.90;;;;;;5049174;28;20041;-64
2023/01/23 12:27:44;;;;;;;6.75;6.03;;;4.20;99.90;;;;;;5048817;28;20100;-64
2023/01/23 12:30:51;;;;;;;8.95;6.25;;;4.10;99.90;;;;;;5029761;28;20076;-65
2023/01/23 12:33:45;;;;;;;9.60;6.70;;;4.10;99.90;;;;;;4974859;28;20080;-64
2023/01/23 12:36:35;;;;;;;7.80;6.97;;;4.10;99.90;;;;;;4990642;28;20069;-64
2023/01/23 12:39:29;;;;;;;9.93;7.60;;;4.20;99.90;;;;;;5041575;28;20100;-63
2023/01/23 12:42:09;;;;;;;8.02;7.05;;;4.20;99.90;;;;;;5052814;28;20078;-63
2023/01/23 12:45:03;;;;;;;8.45;6.78;;;4.20;99.90;;;;;;5050162;28;20057;-64
2023/01/23 12:47:37;;;;;;;7.97;7.05;;;4.20;99.90;;;;;;5034016;28;20569;-64
2023/01/23 12:50:23;;;;;;;10.63;6.63;;;4.20;99.90;;;;;;5050155;28;20035;-63
2023/01/23 12:52:56;;;;;;;8.20;7.03;;;4.20;99.90;;;;;;5049505;28;20053;-63
2023/01/23 12:55:31;;;;;;;8.95;7.57;;;4.20;99.90;;;;;;5051973;28;20076;-63
2023/01/23 12:57:58;;;;;;;9.85;7.53;;;4.20;99.90;;;;;;5051482;28;20040;-64
2023/01/23 13:00:43;;;;;;;10.65;6.93;;;4.20;99.90;;;;;;5053085;28;20041;-63